createdAt,value
2023-04-14T00:00:02.306Z,946.9378052
2023-04-14T00:01:02.690Z,946.9603271
2023-04-14T00:02:04.008Z,946.9119263
2023-04-14T00:03:05.213Z,946.9318848
2023-04-14T00:04:06.146Z,946.9425659
2023-04-14T00:05:06.512Z,946.9709473
2023-04-14T00:06:06.961Z,946.9467163
2023-04-14T00:07:08.002Z,946.9666138
2023-04-14T00:08:08.436Z,946.9592285
2023-04-14T09:31:52.161Z,946.6109619
2023-04-14T09:32:53.848Z,946.6088257
2023-04-14T09:33:55.200Z,946.6484375
2023-04-14T09:34:57.875Z,946.6015625
2023-04-14T09:35:57.085Z,946.6166382
2023-04-14T09:36:59.253Z,946.6212769
2023-04-14T09:38:00.805Z,946.6038818
2023-04-14T09:39:01.695Z,946.5769043
2023-04-14T09:40:03.533Z,946.5859985
2023-04-14T09:41:07.097Z,946.5718994
2023-04-14T09:42:09.112Z,946.6057739
2023-04-14T09:43:10.292Z,946.5777588
2023-04-14T09:44:11.018Z,946.5441895
2023-04-14T09:45:12.840Z,946.5559082
2023-04-14T09:46:13.870Z,946.602356
2023-04-14T09:47:14.683Z,946.5454712
2023-04-14T09:48:15.316Z,946.5546265
2023-04-14T09:49:17.168Z,946.5281372
2023-04-14T09:50:18.050Z,946.5641479
2023-04-14T09:51:19.717Z,946.5170288
2023-04-14T09:52:21.317Z,946.4935913
2023-04-14T09:53:53.547Z,946.5150146
2023-04-14T09:54:54.048Z,946.5128174
2023-04-14T09:55:54.763Z,946.5029907
2023-04-14T09:56:55.467Z,946.524353
2023-04-14T09:57:56.255Z,946.5025024
2023-04-14T09:58:57.605Z,946.4737549
2023-04-14T09:59:59.172Z,946.4707031
2023-04-14T10:00:59.940Z,946.5002441
2023-04-14T10:02:00.703Z,946.4223633
2023-04-14T10:03:01.865Z,946.4204712
2023-04-14T10:04:02.844Z,946.4070435
2023-04-14T10:05:03.523Z,946.423584
2023-04-14T10:06:04.364Z,946.3844604
2023-04-14T10:07:06.361Z,946.4353638
2023-04-14T10:08:07.271Z,946.3480225
2023-04-14T10:09:08.904Z,946.3828125
2023-04-14T10:10:10.360Z,946.3329468
2023-04-14T10:11:12.176Z,946.3317261
2023-04-14T10:12:39.303Z,946.3043823
2023-04-14T10:14:11.174Z,946.2895508
2023-04-14T10:15:13.151Z,946.2824097
2023-04-14T10:16:15.027Z,946.2626343
2023-04-14T10:17:16.370Z,946.2446289
2023-04-14T10:18:17.146Z,946.2304077
2023-04-14T10:19:17.921Z,946.2631226
2023-04-14T10:20:19.183Z,946.2764282
2023-04-14T10:21:20.862Z,946.2168579
2023-04-14T10:22:21.577Z,946.1954956
2023-04-14T10:23:22.217Z,946.2285767
2023-04-14T10:24:38.672Z,946.1942139
2023-04-14T10:25:24.333Z,946.1518555
2023-04-14T10:26:25.146Z,946.1813354
2023-04-14T10:27:25.962Z,946.1307983
2023-04-14T10:28:27.300Z,946.1376343
2023-04-14T10:29:27.942Z,946.138916
2023-04-14T10:30:29.759Z,946.1464233
2023-04-14T10:31:31.626Z,946.0980225
2023-04-14T10:32:32.545Z,946.0918579
2023-04-14T10:33:34.319Z,946.1010132
2023-04-14T10:34:34.923Z,946.0543213
2023-04-14T10:35:36.356Z,946.0650024
2023-04-14T10:36:37.800Z,946.081543
2023-04-14T10:37:38.989Z,946.0900269
2023-04-14T10:39:10.903Z,946.0322876
2023-04-14T10:40:11.915Z,946.0429688
2023-04-14T10:41:13.619Z,946.0131226
2023-04-14T10:42:14.616Z,946.006958
2023-04-14T10:43:15.337Z,945.996582
2023-04-14T10:44:16.886Z,946.026123
2023-04-14T10:45:18.349Z,945.9771118
2023-04-14T10:46:19.050Z,945.9796753
2023-04-14T10:47:19.860Z,946.0020142
2023-04-14T10:48:20.449Z,945.9918823
2023-04-14T10:49:21.613Z,945.9857788
2023-04-14T10:50:23.343Z,945.9996338
2023-04-14T10:51:24.841Z,945.93927
2023-04-14T10:52:25.573Z,945.9561157
2023-04-14T10:53:26.797Z,945.9343872
2023-04-14T10:54:27.511Z,945.9624023
2023-04-14T10:55:28.360Z,945.9312744
2023-04-14T10:56:29.139Z,945.9257202
2023-04-14T10:57:30.015Z,945.9470215
2023-04-14T10:58:31.327Z,945.9318237
2023-04-14T10:59:32.779Z,945.8983765
2023-04-14T11:00:33.565Z,945.909668
2023-04-14T11:01:35.120Z,945.9301758
2023-04-14T11:02:36.045Z,945.9245605
2023-04-14T11:03:37.401Z,945.9255371
2023-04-14T11:05:09.280Z,945.8775024
2023-04-14T11:06:10.696Z,945.8768921
2023-04-14T11:07:11.462Z,945.8551636
2023-04-14T11:08:12.147Z,945.8009644
2023-04-14T11:09:13.710Z,945.760498
2023-04-14T11:10:15.207Z,945.7467041
2023-04-14T11:11:16.986Z,945.8103027
2023-04-14T11:12:18.478Z,945.7583618
2023-04-14T11:13:19.068Z,945.7003174
2023-04-14T11:14:20.689Z,945.7192993
2023-04-14T11:15:21.526Z,945.7522583
2023-04-14T11:16:22.281Z,945.6867065
2023-04-14T11:17:23.297Z,945.7164307
2023-04-14T11:18:23.688Z,945.6682739
2023-04-14T11:19:25.122Z,945.6798706
2023-04-14T11:20:25.870Z,945.708252
2023-04-14T11:21:27.427Z,945.6696777
2023-04-14T11:22:28.467Z,945.6766968
2023-04-14T11:23:29.804Z,945.6995239
2023-04-14T11:24:30.404Z,945.6963501
2023-04-14T11:25:31.153Z,945.6879883
2023-04-14T11:26:32.791Z,945.6464844
2023-04-14T11:27:34.348Z,945.6439209
2023-04-14T11:28:35.020Z,945.6079712
2023-04-14T11:29:36.644Z,945.6115112
2023-04-14T11:30:37.433Z,945.5880737
2023-04-14T11:32:09.690Z,945.5678711
2023-04-14T11:33:10.401Z,945.5308838
2023-04-14T11:34:11.698Z,945.5512695
2023-04-14T11:35:12.564Z,945.4953003
2023-04-14T11:36:14.206Z,945.4729614
2023-04-14T11:37:15.925Z,945.4527588
2023-04-14T11:38:17.488Z,945.4854736
2023-04-14T11:39:18.853Z,945.4668579
2023-04-14T11:40:19.622Z,945.4659424
2023-04-14T11:41:21.606Z,945.4442139
2023-04-14T11:42:22.513Z,945.4412231
2023-04-14T11:43:24.138Z,945.4329834
2023-04-14T11:44:25.617Z,945.4226685
2023-04-14T11:45:27.331Z,945.357666
2023-04-14T11:46:28.882Z,945.3787231
2023-04-14T11:47:30.369Z,945.3423462
2023-04-14T11:48:31.186Z,945.3595581
2023-04-14T11:49:31.692Z,945.3270874
2023-04-14T11:50:32.323Z,945.2897949
2023-04-14T11:51:33.007Z,945.2860718
2023-04-14T11:52:34.598Z,945.2854614
2023-04-14T11:53:35.816Z,945.255249
2023-04-14T11:54:36.543Z,945.2415771
2023-04-14T11:55:38.066Z,945.1981812
2023-04-14T11:57:09.016Z,945.1682739
2023-04-14T11:58:10.593Z,945.1673584
2023-04-14T11:59:11.182Z,945.117981
2023-04-14T12:00:12.648Z,945.1129761
2023-04-14T12:01:13.660Z,945.0767212
2023-04-14T12:02:15.309Z,945.0656128
2023-04-14T12:03:16.560Z,945.0333862
2023-04-14T12:04:17.147Z,945.0407104
2023-04-14T12:05:18.389Z,945.0204468
2023-04-14T12:06:19.004Z,944.9873657
2023-04-14T12:07:19.756Z,944.8729858
2023-04-14T12:08:20.338Z,944.8757935
2023-04-14T12:09:22.359Z,944.8279419
2023-04-14T12:10:23.024Z,944.8306885
2023-04-14T12:11:24.618Z,944.8048706
2023-04-14T12:12:28.601Z,944.8474121
2023-04-14T12:13:27.326Z,944.8146973
2023-04-14T12:14:27.976Z,944.8343506
2023-04-14T12:15:28.702Z,944.7948608
2023-04-14T12:16:29.490Z,944.8057861
2023-04-14T12:17:30.131Z,944.8401489
2023-04-14T12:18:30.660Z,944.7927246
2023-04-14T12:19:31.360Z,944.7868652
2023-04-14T12:20:32.020Z,944.7562256
2023-04-14T12:21:32.734Z,944.7803345
2023-04-14T12:22:34.117Z,944.7438965
2023-04-14T12:23:35.282Z,944.720459
2023-04-14T12:24:36.003Z,944.7370605
2023-04-14T12:25:36.686Z,944.7145386
2023-04-14T12:26:37.778Z,944.7199707
2023-04-14T12:28:08.724Z,944.7260132
2023-04-14T12:29:10.152Z,944.7352905
2023-04-14T12:30:10.969Z,944.6997681
2023-04-14T12:31:11.666Z,944.7103882
2023-04-14T12:32:12.844Z,944.7213135
2023-04-14T12:33:13.756Z,944.6588135
2023-04-14T12:34:15.342Z,944.6087646
2023-04-14T12:35:16.072Z,944.6046753
2023-04-14T12:36:16.716Z,944.5218506
2023-04-14T12:37:17.366Z,944.5536499
2023-04-14T12:38:18.058Z,944.5179443
2023-04-14T12:39:20.297Z,944.4816895
2023-04-14T12:40:21.020Z,944.5043945
2023-04-14T12:41:21.623Z,944.494873
2023-04-14T12:42:23.158Z,944.4649048
2023-04-14T12:43:24.375Z,944.421936
2023-04-14T12:44:25.820Z,944.4897461
2023-04-14T12:45:28.041Z,944.493103
2023-04-14T12:46:27.228Z,944.4868774
2023-04-14T12:47:28.630Z,944.4505615
2023-04-14T12:48:29.283Z,944.425415
2023-04-14T12:49:30.719Z,944.4375
2023-04-14T12:50:31.389Z,944.4442749
2023-04-14T12:51:32.136Z,944.4117432
2023-04-14T12:52:33.758Z,944.3630981
2023-04-14T12:53:34.476Z,944.3234253
2023-04-14T12:54:35.142Z,944.3339844
2023-04-14T12:55:36.691Z,944.2976074
2023-04-14T12:57:08.188Z,944.2528076
2023-04-14T12:58:09.146Z,944.2129517
2023-04-14T12:59:10.927Z,944.2371826
2023-04-14T13:00:11.860Z,944.1893921
2023-04-14T13:01:12.642Z,944.2145386
2023-04-14T13:02:13.905Z,944.2199707
2023-04-14T13:03:14.882Z,944.1959229
2023-04-14T13:04:16.163Z,944.2033081
2023-04-14T13:05:16.674Z,944.2114258
2023-04-14T13:06:18.233Z,944.1439209
2023-04-14T13:07:19.655Z,944.1574707
2023-04-14T13:08:20.298Z,944.1625977
2023-04-14T13:09:22.306Z,944.0784302
2023-04-14T13:10:22.962Z,944.1265869
2023-04-14T13:11:24.431Z,944.0948486
2023-04-14T13:12:26.054Z,944.0987549
2023-04-14T13:13:27.009Z,944.0431519
2023-04-14T13:14:28.924Z,944.0455322
2023-04-14T13:16:11.903Z,944.0390625
2023-04-14T13:16:31.354Z,943.9553223
2023-04-14T13:17:32.141Z,943.9935913
2023-04-14T13:18:32.656Z,944.0204468
2023-04-14T13:19:34.219Z,943.9837646
2023-04-14T13:20:34.873Z,943.8898926
2023-04-14T13:21:35.636Z,943.8383789
2023-04-14T13:22:36.832Z,943.8823242
2023-04-14T13:24:07.700Z,943.8543701
2023-04-14T13:25:08.493Z,943.8590698
2023-04-14T13:26:09.137Z,943.7944336
2023-04-14T13:27:10.632Z,943.8294678
2023-04-14T13:28:12.079Z,943.774353
2023-04-14T13:29:12.634Z,943.7781982
2023-04-14T13:30:14.481Z,943.7771606
2023-04-14T13:31:15.304Z,943.7773438
2023-04-14T13:32:16.051Z,943.7115479
2023-04-14T13:33:17.064Z,943.6918945
2023-04-14T13:34:18.311Z,943.7171631
2023-04-14T13:35:18.851Z,943.7006226
2023-04-14T13:36:19.533Z,943.6634521
2023-04-14T13:37:20.190Z,943.6817017
2023-04-14T13:38:20.718Z,943.6355591
2023-04-14T13:39:22.813Z,943.6886597
2023-04-14T13:40:23.534Z,943.5978394
2023-04-14T13:41:25.085Z,943.5228271
2023-04-14T13:42:26.708Z,943.4590454
2023-04-14T13:43:27.348Z,943.4464111
2023-04-14T13:44:28.822Z,943.3884888
2023-04-14T13:45:29.384Z,943.4414063
2023-04-14T13:46:34.393Z,943.4246826
2023-04-14T13:47:32.308Z,943.3817139
2023-04-14T13:48:33.616Z,943.3861084
2023-04-14T13:49:34.784Z,943.3432617
2023-04-14T13:50:35.420Z,943.302002
2023-04-14T13:52:07.152Z,943.380249
2023-04-14T13:53:07.729Z,943.361084
2023-04-14T13:54:09.247Z,943.434082
2023-04-14T13:55:10.849Z,943.352478
2023-04-14T13:56:11.367Z,943.34375
2023-04-14T13:57:11.949Z,943.3135376
2023-04-14T13:58:13.607Z,943.2820435
2023-04-14T13:59:14.869Z,943.2683105
2023-04-14T14:00:15.590Z,943.2910156
2023-04-14T14:01:16.199Z,943.2290649
2023-04-14T14:02:16.888Z,943.256897
2023-04-14T14:03:18.412Z,943.1983032
2023-04-14T14:04:19.924Z,943.1925049
2023-04-14T14:05:20.411Z,943.1656494
2023-04-14T14:06:21.005Z,943.1813965
2023-04-14T14:07:21.623Z,943.1763916
2023-04-14T14:08:23.127Z,943.1834106
2023-04-14T14:09:24.324Z,943.1796875
2023-04-14T14:10:25.870Z,943.1322021
2023-04-14T14:11:26.477Z,943.0906982
2023-04-14T14:12:27.187Z,943.1224976
2023-04-14T14:13:27.906Z,943.0976563
2023-04-14T14:14:29.118Z,943.1230469
2023-04-14T14:15:30.859Z,943.0881348
2023-04-14T14:17:32.898Z,942.9810791
2023-04-14T14:18:34.208Z,942.930603
2023-04-14T14:19:35.959Z,942.934082
2023-04-14T14:21:06.872Z,942.8312378
2023-04-14T14:22:08.292Z,942.8498535
2023-04-14T14:23:08.927Z,942.8112793
2023-04-14T14:24:10.416Z,942.8306885
2023-04-14T14:25:20.244Z,942.8289185
2023-04-14T14:26:12.401Z,942.8045044
2023-04-14T14:27:12.989Z,942.7971802
2023-04-14T14:28:14.912Z,942.7598267
2023-04-14T14:29:15.556Z,942.7852173
2023-04-14T14:30:17.065Z,942.767334
2023-04-14T14:31:18.330Z,942.7223511
2023-04-14T14:32:18.999Z,942.7313843
2023-04-14T14:33:19.497Z,942.7489014
2023-04-14T14:34:20.633Z,942.7366943
2023-04-14T14:35:21.794Z,942.6921997
2023-04-14T14:36:22.408Z,942.7028198
2023-04-14T14:37:22.965Z,942.7028198
2023-04-14T14:38:24.314Z,942.6555176
2023-04-14T14:39:25.782Z,942.6948242
2023-04-14T14:40:27.131Z,942.7041626
2023-04-14T14:41:27.718Z,942.6828003
2023-04-14T14:42:29.557Z,942.6654663
2023-04-14T14:43:31.068Z,942.5991211
2023-04-14T14:44:31.806Z,942.6621704
2023-04-14T14:45:33.728Z,942.6740723
2023-04-14T14:46:33.976Z,942.6060791
2023-04-14T14:47:34.659Z,942.5984497
2023-04-14T14:49:06.471Z,942.5618896
2023-04-14T14:50:08.762Z,942.5708008
2023-04-14T14:51:08.506Z,942.5778198
2023-04-14T14:52:09.178Z,942.5293579
2023-04-14T14:53:09.723Z,942.503418
2023-04-14T14:54:11.074Z,942.5343628
2023-04-14T14:55:11.802Z,942.5031738
2023-04-14T14:56:13.634Z,942.5324097
2023-04-14T14:57:14.309Z,942.5491943
2023-04-14T14:58:15.765Z,942.4940796
2023-04-14T14:59:16.452Z,942.5048218
2023-04-14T15:00:17.160Z,942.5238037
2023-04-14T15:01:17.734Z,942.5246582
2023-04-14T15:02:18.600Z,942.5401611
2023-04-14T15:03:19.148Z,942.559082
2023-04-14T15:04:20.680Z,942.5703125
2023-04-14T15:05:21.886Z,942.5438843
2023-04-14T15:06:22.504Z,942.5147705
2023-04-14T15:07:24.048Z,942.4525757
2023-04-14T15:08:25.288Z,942.5343628
2023-04-14T15:09:26.758Z,942.5175781
2023-04-14T15:10:28.350Z,942.4934082
2023-04-14T15:11:28.878Z,942.4831543
2023-04-14T15:12:30.120Z,942.5010986
2023-04-14T15:13:31.628Z,942.5075684
2023-04-14T15:14:32.212Z,942.4411621
2023-04-14T15:15:32.856Z,942.4751587
2023-04-14T15:16:33.477Z,942.4454956
2023-04-14T15:17:34.057Z,942.3909912
2023-04-14T15:18:35.385Z,942.3499756
2023-04-14T15:20:07.458Z,942.3683472
2023-04-14T15:21:08.099Z,942.3272095
2023-04-14T15:22:08.713Z,942.3513184
2023-04-14T15:23:09.374Z,942.3312378
2023-04-14T15:24:10.831Z,942.3451538
2023-04-14T15:25:11.716Z,942.3740845
2023-04-14T15:26:13.473Z,942.3487549
2023-04-14T15:27:14.132Z,942.331543
2023-04-14T15:28:15.844Z,942.3484497
2023-04-14T15:29:17.341Z,942.3673706
2023-04-14T15:30:17.981Z,942.2924805
2023-04-14T15:31:19.446Z,942.3421631
2023-04-14T15:32:19.983Z,942.3275146
2023-04-14T15:33:20.669Z,942.3498535
2023-04-14T15:34:22.171Z,942.3629761
2023-04-14T15:35:23.341Z,942.3624878
2023-04-14T15:36:24.123Z,942.256897
2023-04-14T15:37:24.731Z,942.2751465
2023-04-14T15:38:26.146Z,942.3136597
2023-04-14T15:39:28.351Z,942.279541
2023-04-14T15:40:29.853Z,942.3171997
2023-04-14T15:41:30.572Z,942.2636108
2023-04-14T15:42:31.101Z,942.237793
2023-04-14T15:43:31.846Z,942.2907104
2023-04-14T15:44:33.174Z,942.2540894
2023-04-14T15:45:33.788Z,942.2823486
2023-04-14T15:47:05.860Z,942.2608032
2023-04-14T15:48:07.362Z,942.2804565
2023-04-14T15:49:08.824Z,942.2902832
2023-04-14T15:50:10.551Z,942.265625
2023-04-14T15:51:10.156Z,942.3000488
2023-04-14T15:52:11.688Z,942.2741699
2023-04-14T15:53:12.302Z,942.2750244
2023-04-14T15:54:13.658Z,942.2648926
2023-04-14T15:55:14.294Z,942.265625
2023-04-14T15:56:15.848Z,942.3150024
2023-04-14T15:57:16.412Z,942.3458862
2023-04-14T15:58:17.026Z,942.3166504
2023-04-14T15:59:18.132Z,942.3641968
2023-04-14T16:00:19.337Z,942.3210449
2023-04-14T16:01:20.198Z,942.3875122
2023-04-14T16:02:20.905Z,942.3284302
2023-04-14T16:03:22.031Z,942.3178101
2023-04-14T16:04:23.514Z,942.3431396
2023-04-14T16:05:24.011Z,942.3501587
2023-04-14T16:06:24.549Z,942.3278198
2023-04-14T16:07:25.345Z,942.3287354
2023-04-14T16:08:26.240Z,942.2904663
2023-04-14T16:09:27.687Z,942.3557129
2023-04-14T16:10:29.187Z,942.3493652
2023-04-14T16:11:30.347Z,942.3355713
2023-04-14T16:12:31.941Z,942.3345947
2023-04-14T16:13:32.772Z,942.3071899
2023-04-14T16:14:34.168Z,942.3076782
2023-04-14T16:16:05.526Z,942.3509521
2023-04-14T16:17:06.173Z,942.3292847
2023-04-14T16:18:06.922Z,942.3131104
2023-04-14T16:19:08.280Z,942.3043213
2023-04-14T16:20:09.635Z,942.328186
2023-04-14T16:21:10.194Z,942.293457
2023-04-14T16:22:10.846Z,942.3156128
2023-04-14T16:23:11.583Z,942.3426514
2023-04-14T16:24:12.857Z,942.321106
2023-04-14T16:25:13.612Z,942.3069458
2023-04-14T16:26:14.147Z,942.3200073
2023-04-14T16:27:14.953Z,942.347168
2023-04-14T16:28:16.323Z,942.392395
2023-04-14T16:29:17.737Z,942.3795166
2023-04-14T16:30:19.145Z,942.3659668
2023-04-14T16:31:19.761Z,942.3926392
2023-04-14T16:32:20.372Z,942.3961182
2023-04-14T16:33:21.082Z,942.3920288
2023-04-14T16:34:22.627Z,942.4335938
2023-04-14T16:35:23.207Z,942.420166
2023-04-14T16:36:23.807Z,942.4185791
2023-04-14T16:37:24.470Z,942.4077148
2023-04-14T16:38:25.308Z,942.4709473
2023-04-14T16:39:26.781Z,942.4550171
2023-04-14T16:40:28.453Z,942.4362793
2023-04-14T16:41:28.945Z,942.4391479
2023-04-14T16:42:30.376Z,942.4978027
2023-04-14T16:43:30.972Z,942.5083008
2023-04-14T16:44:32.193Z,942.5075073
2023-04-14T16:45:32.932Z,942.5734863
2023-04-14T16:46:34.477Z,942.5125122
2023-04-14T16:48:05.784Z,942.5218506
2023-04-14T16:49:06.821Z,942.4743652
2023-04-14T16:50:08.182Z,942.472168
2023-04-14T16:51:08.844Z,942.4859619
2023-04-14T16:52:10.510Z,942.4643555
2023-04-14T16:53:11.931Z,942.4591675
2023-04-14T16:54:12.640Z,942.5009155
2023-04-14T16:55:13.581Z,942.508728
2023-04-14T16:56:14.990Z,942.4799805
2023-04-14T16:57:15.755Z,942.4533081
2023-04-14T16:58:16.584Z,942.4458618
2023-04-14T16:59:18.245Z,942.4910889
2023-04-14T17:00:19.630Z,942.4940796
2023-04-14T17:01:20.404Z,942.5336914
2023-04-14T17:02:22.265Z,942.53125
2023-04-14T17:03:24.047Z,942.5292358
2023-04-14T17:04:25.507Z,942.5205688
2023-04-14T17:05:25.935Z,942.5731201
2023-04-14T17:06:26.592Z,942.5809937
2023-04-14T17:07:28.291Z,942.5513916
2023-04-14T17:08:29.836Z,942.5402222
2023-04-14T17:09:31.351Z,942.5454102
2023-04-14T17:10:32.816Z,942.5491333
2023-04-14T17:11:33.475Z,942.5709229
2023-04-14T17:13:05.272Z,942.5687256
2023-04-14T17:14:06.830Z,942.5819702
2023-04-14T17:15:07.453Z,942.5405273
2023-04-14T17:16:09.553Z,942.5601807
2023-04-14T17:17:09.571Z,942.5437622
2023-04-14T17:18:10.898Z,942.5298462
2023-04-14T17:19:12.377Z,942.5738525
2023-04-14T17:20:13.017Z,942.5183716
2023-04-14T17:21:13.682Z,942.541748
2023-04-14T17:22:15.455Z,942.5301514
2023-04-14T17:23:17.570Z,942.5283813
2023-04-14T17:24:20.023Z,942.4995117
2023-04-14T17:25:20.605Z,942.5324707
2023-04-14T17:26:21.953Z,942.5440674
2023-04-14T17:27:23.491Z,942.5281982
2023-04-14T17:28:24.141Z,942.5108032
2023-04-14T17:29:25.824Z,942.5339355
2023-04-14T17:30:26.423Z,942.5426025
2023-04-14T17:31:27.226Z,942.5134277
2023-04-14T17:32:28.107Z,942.5112305
2023-04-14T17:33:28.755Z,942.531189
2023-04-14T17:34:30.182Z,942.5296631
2023-04-14T17:35:30.882Z,942.5240479
2023-04-14T17:36:31.584Z,942.4820557
2023-04-14T17:37:32.321Z,942.515564
2023-04-14T17:38:32.994Z,942.5265503
2023-04-14T17:40:05.410Z,942.5465698
2023-04-14T17:41:05.992Z,942.5108032
2023-04-14T17:42:06.924Z,942.5861206
2023-04-14T17:43:07.662Z,942.5533447
2023-04-14T17:44:08.843Z,942.6081543
2023-04-14T17:45:09.523Z,942.5820923
2023-04-14T17:46:10.221Z,942.6123657
2023-04-14T17:47:10.935Z,942.6035767
2023-04-14T17:48:11.832Z,942.5507813
2023-04-14T17:49:13.620Z,942.6101685
2023-04-14T17:50:14.901Z,942.649353
2023-04-14T17:51:15.495Z,942.6113281
2023-04-14T17:52:16.397Z,942.6559448
2023-04-14T17:53:17.176Z,942.6610718
2023-04-14T17:54:18.339Z,942.6707764
2023-04-14T17:55:19.051Z,942.6707764
2023-04-14T17:56:20.272Z,942.6408081
2023-04-14T17:57:21.962Z,942.619751
2023-04-14T17:58:22.892Z,942.6342163
2023-04-14T17:59:24.147Z,942.644043
2023-04-14T18:00:25.591Z,942.6213989
2023-04-14T18:01:26.438Z,942.6507568
2023-04-14T18:02:27.953Z,942.6383667
2023-04-14T18:03:28.881Z,942.6710815
2023-04-14T18:04:30.212Z,942.697876
2023-04-14T18:05:30.791Z,942.6204834
2023-04-14T18:06:31.540Z,942.6596069
2023-04-14T18:07:32.305Z,942.6693726
2023-04-14T18:08:34.400Z,942.6429443
2023-04-14T18:10:06.840Z,942.6364746
2023-04-14T18:11:07.642Z,942.6365356
2023-04-14T18:12:08.344Z,942.647644
2023-04-14T18:13:09.101Z,942.7006836
2023-04-14T18:14:10.445Z,942.6698608
2023-04-14T18:15:10.929Z,942.6745605
2023-04-14T18:16:12.243Z,942.6834106
2023-04-14T18:17:13.886Z,942.6729126
2023-04-14T18:18:15.353Z,942.6931152
2023-04-14T18:19:16.087Z,942.7062378
2023-04-14T18:20:17.644Z,942.6766968
2023-04-14T18:21:19.332Z,942.713623
2023-04-14T18:22:20.034Z,942.6922607
2023-04-14T18:23:22.324Z,942.6652832
2023-04-14T18:25:24.382Z,942.6602173
2023-04-14T18:26:26.674Z,942.7034912
2023-04-14T18:28:27.263Z,942.6992188
2023-04-14T18:29:28.918Z,942.6829834
2023-04-14T18:30:30.379Z,942.6813354
2023-04-14T18:31:31.417Z,942.7103882
2023-04-14T18:32:32.027Z,942.7385864
2023-04-14T18:34:04.361Z,942.7199707
2023-04-14T18:35:04.997Z,942.746582
2023-04-14T18:36:05.629Z,942.7929077
2023-04-14T18:37:06.344Z,942.8515625
2023-04-14T18:38:07.899Z,942.8822021
2023-04-14T18:39:09.318Z,942.8570557
2023-04-14T18:40:10.927Z,942.8620605
2023-04-14T18:41:11.631Z,942.9082642
2023-04-14T18:42:13.542Z,942.9162598
2023-04-14T18:43:14.841Z,942.9495239
2023-04-14T18:44:15.428Z,942.9664307
2023-04-14T18:45:16.189Z,942.9769287
2023-04-14T18:46:17.305Z,943.0137329
2023-04-14T18:47:18.025Z,942.9851685
2023-04-14T18:48:19.110Z,943.0281372
2023-04-14T18:49:21.336Z,943.0645142
2023-04-14T18:50:22.965Z,943.0144043
2023-04-14T18:51:23.635Z,943.0248413
2023-04-14T18:52:24.257Z,943.0296631
2023-04-14T18:53:25.708Z,942.9897461
2023-04-14T18:54:26.901Z,943.0036011
2023-04-14T18:55:28.478Z,943.0328369
2023-04-14T18:56:29.283Z,943.0377197
2023-04-14T18:57:30.791Z,943.0841675
2023-04-14T18:58:32.379Z,943.1400146
2023-04-14T19:00:04.172Z,943.1353149
2023-04-14T19:01:05.733Z,943.1612549
2023-04-14T19:02:06.567Z,943.1995239
2023-04-14T19:03:07.231Z,943.2179565
2023-04-14T19:04:08.386Z,943.2263184
2023-04-14T19:05:09.051Z,943.2246704
2023-04-14T19:06:09.820Z,943.194519
2023-04-14T19:07:10.575Z,943.1970215
2023-04-14T19:08:11.667Z,943.2572021
2023-04-14T19:09:12.832Z,943.2416992
2023-04-14T19:10:14.506Z,943.2702637
2023-04-14T19:11:15.326Z,943.2894287
2023-04-14T19:12:27.672Z,943.2902832
2023-04-14T19:13:16.460Z,943.2984619
2023-04-14T19:14:17.056Z,943.3685303
2023-04-14T19:15:18.397Z,943.2798462
2023-04-14T19:16:19.141Z,943.333252
2023-04-14T19:17:19.617Z,943.3283081
2023-04-14T19:18:20.220Z,943.3421631
2023-04-14T19:19:21.895Z,943.3356323
2023-04-14T19:20:23.416Z,943.336853
2023-04-14T19:21:24.209Z,943.3546753
2023-04-14T19:22:24.755Z,943.3458862
2023-04-14T19:23:25.289Z,943.3718262
2023-04-14T19:24:26.849Z,943.4430542
2023-04-14T19:25:28.297Z,943.3840332
2023-04-14T19:26:29.793Z,943.4221802
2023-04-14T19:27:30.421Z,943.3937378
2023-04-14T19:28:30.983Z,943.4311523
2023-04-14T19:29:32.616Z,943.4488525
2023-04-14T19:31:04.252Z,943.4609375
2023-04-14T19:32:05.016Z,943.449585
2023-04-14T19:33:06.365Z,943.4439087
2023-04-14T19:34:07.910Z,943.4561157
2023-04-14T19:35:09.390Z,943.4519653
2023-04-14T19:36:09.944Z,943.4118042
2023-04-14T19:37:11.375Z,943.4385986
2023-04-14T19:38:12.228Z,943.4458008
2023-04-14T19:39:13.964Z,943.468689
2023-04-14T19:40:15.857Z,943.4417114
2023-04-14T19:41:16.610Z,943.4937744
2023-04-14T19:42:18.119Z,943.4823608
2023-04-14T19:43:18.689Z,943.5124512
2023-04-14T19:44:20.504Z,943.5351563
2023-04-14T19:45:21.146Z,943.5595093
2023-04-14T19:46:21.898Z,943.5261841
2023-04-14T19:47:22.596Z,943.5324707
2023-04-14T19:48:24.510Z,943.538147
2023-04-14T19:49:25.853Z,943.5379639
2023-04-14T19:50:27.356Z,943.5388794
2023-04-14T19:51:27.954Z,943.5215454
2023-04-14T19:52:29.377Z,943.5351563
2023-04-14T19:53:29.947Z,943.5665894
2023-04-14T19:54:31.354Z,943.5792236
2023-04-14T19:55:32.398Z,943.5578003
2023-04-14T19:57:03.399Z,943.5847168
2023-04-14T19:58:03.982Z,943.602356
2023-04-14T19:59:05.415Z,943.5704956
2023-04-14T20:00:08.401Z,943.5995483
2023-04-14T20:01:10.925Z,943.6081543
2023-04-14T20:02:11.550Z,943.5998535
2023-04-14T20:03:12.344Z,943.6012573
2023-04-14T20:04:14.060Z,943.6063232
2023-04-14T20:05:44.635Z,943.5741577
2023-04-14T20:07:15.547Z,943.5887451
2023-04-14T20:08:16.282Z,943.5829468
2023-04-14T20:09:18.016Z,943.5684204
2023-04-14T20:10:19.406Z,943.555481
2023-04-14T20:11:20.249Z,943.4896851
2023-04-14T20:12:21.853Z,943.5496826
2023-04-14T20:13:22.637Z,943.5967407
2023-04-14T20:14:23.933Z,943.5722046
2023-04-14T20:15:25.372Z,943.5772095
2023-04-14T20:16:26.197Z,943.56073
2023-04-14T20:17:26.824Z,943.5656128
2023-04-14T20:18:27.566Z,943.5631104
2023-04-14T20:19:29.236Z,943.5501709
2023-04-14T20:20:30.922Z,943.5402222
2023-04-14T20:21:31.510Z,943.5432739
2023-04-14T20:23:03.059Z,943.5513916
2023-04-14T20:24:04.423Z,943.5845337
2023-04-14T20:25:05.057Z,943.5462646
2023-04-14T20:26:05.853Z,943.5585938
2023-04-14T20:27:07.424Z,943.5527954
2023-04-14T20:28:09.881Z,943.5446777
2023-04-14T20:29:12.750Z,943.5770874
2023-04-14T20:30:15.890Z,943.578125
2023-04-14T20:31:19.583Z,943.5401001
2023-04-14T20:32:21.096Z,943.5634155
2023-04-14T20:33:26.117Z,943.5284424
2023-04-14T20:34:27.570Z,943.5585938
2023-04-14T20:35:28.989Z,943.5706177
2023-04-14T20:36:32.328Z,943.5811768
2023-04-14T20:38:05.654Z,943.6304932
2023-04-14T20:39:10.918Z,943.5995483
2023-04-14T20:40:14.947Z,943.5960693
2023-04-14T20:41:17.039Z,943.6454468